Time;durP1;ratioP1;P1;durP2;ratioP2;P2;SDS_P1;SDS_P2;PMS_P1;PMS_P2;Temp;Humidity;BMP_temperature;BMP_pressure;BME280_temperature;BME280_humidity;BME280_pressure;Samples;Min_cycle;Max_cycle;Signal;HPM_P1;HPM_P2
2024/02/02 00:00:40;;;;;;;4.03;1.83;;;;;;;20.17;41.21;101437.53;5019092;28;20310;-28
2024/02/02 00:03:06;;;;;;;4.20;2.00;;;;;;;20.18;41.43;101422.94;5025147;28;20037;-28
2024/02/02 00:05:31;;;;;;;4.72;2.17;;;;;;;20.17;41.42;101423.97;5011629;28;20127;-28
2024/02/02 00:07:56;;;;;;;4.55;2.13;;;;;;;20.15;41.39;101434.16;5018164;28;20046;-29
2024/02/02 00:10:23;;;;;;;4.53;2.07;;;;;;;20.18;41.32;101428.38;5014263;28;20045;-28
2024/02/02 00:12:48;;;;;;;4.97;2.80;;;;;;;20.15;41.46;101434.16;4999731;28;20278;-28
2024/02/02 00:15:13;;;;;;;4.40;1.97;;;;;;;20.13;41.29;101428.91;5014788;28;20075;-28
2024/02/02 00:17:38;;;;;;;5.07;2.17;;;;;;;20.08;41.30;101424.00;5022142;28;20061;-29
2024/02/02 00:20:04;;;;;;;3.72;1.95;;;;;;;20.12;41.48;101423.66;5018903;28;20089;-28
2024/02/02 00:22:29;;;;;;;5.72;2.20;;;;;;;20.12;41.51;101413.63;5017208;28;20053;-28
2024/02/02 00:24:54;;;;;;;3.67;1.80;;;;;;;20.09;41.63;101417.56;5028087;28;20076;-28
2024/02/02 00:27:19;;;;;;;4.80;2.33;;;;;;;20.03;41.69;101410.09;5023738;28;20092;-30
2024/02/02 00:29:46;;;;;;;4.03;2.10;;;;;;;20.08;41.40;101405.00;5020229;28;20033;-28
2024/02/02 00:32:11;;;;;;;4.75;2.17;;;;;;;20.06;41.32;101408.91;5023938;28;20038;-28
2024/02/02 00:34:36;;;;;;;4.47;2.10;;;;;;;20.03;41.34;101404.66;5015982;28;21858;-29
2024/02/02 00:37:01;;;;;;;5.37;2.00;;;;;;;20.06;41.38;101409.75;5031110;28;20029;-29
2024/02/02 00:39:26;;;;;;;4.50;2.33;;;;;;;20.04;41.45;101400.09;5024723;28;20038;-29
2024/02/02 00:41:51;;;;;;;4.38;2.25;;;;;;;20.01;41.55;101395.00;5016119;28;20289;-27
2024/02/02 00:44:16;;;;;;;5.17;2.50;;;;;;;20.04;41.58;101392.78;5020503;28;20881;-28
2024/02/02 00:46:42;;;;;;;4.13;2.07;;;;;;;20.06;41.62;101390.75;5012996;28;20094;-28
2024/02/02 00:49:07;;;;;;;4.65;2.10;;;;;;;20.00;41.49;101380.59;5014615;28;20055;-28
2024/02/02 00:51:32;;;;;;;5.72;2.40;;;;;;;19.97;41.49;101383.66;5005061;28;20034;-28
2024/02/02 00:53:58;;;;;;;4.10;2.17;;;;;;;20.02;41.91;101373.13;5018514;28;20604;-28
2024/02/02 00:56:24;;;;;;;4.93;2.30;;;;;;;19.98;41.75;101373.66;5018949;28;20053;-28
2024/02/02 00:58:49;;;;;;;3.85;1.73;;;;;;;20.01;41.65;101385.00;5022637;28;20500;-28
2024/02/02 01:01:14;;;;;;;5.10;2.33;;;;;;;19.99;41.74;101380.75;5000491;28;20096;-28
2024/02/02 01:03:39;;;;;;;5.65;2.17;;;;;;;19.99;41.83;101380.75;5009511;28;20739;-28
2024/02/02 01:06:04;;;;;;;4.40;2.10;;;;;;;19.99;41.87;101380.75;5020058;28;20048;-27
2024/02/02 01:08:29;;;;;;;4.63;2.30;;;;;;;19.95;41.82;101385.69;5020568;28;20041;-29
2024/02/02 01:10:55;;;;;;;4.17;1.90;;;;;;;20.01;41.89;101382.28;5029156;28;20041;-28
2024/02/02 01:13:20;;;;;;;4.10;2.00;;;;;;;19.97;42.04;101375.50;5026424;28;20049;-32
2024/02/02 01:15:45;;;;;;;4.30;2.30;;;;;;;19.98;41.78;101371.78;5029656;28;20124;-28
2024/02/02 01:18:12;;;;;;;4.15;1.98;;;;;;;19.98;41.88;101368.25;5022167;28;20291;-28
2024/02/02 01:20:37;;;;;;;4.75;2.28;;;;;;;19.95;42.02;101370.28;5018499;28;20050;-28
2024/02/02 01:23:03;;;;;;;4.60;2.38;;;;;;;19.97;41.91;101380.09;5016210;28;20637;-28
2024/02/02 01:25:29;;;;;;;4.43;2.07;;;;;;;19.95;42.15;101380.25;5026438;28;20084;-28
2024/02/02 01:27:54;;;;;;;4.28;2.30;;;;;;;19.95;41.87;101372.13;5018390;28;20284;-30
2024/02/02 01:30:20;;;;;;;10.07;2.27;;;;;;;19.93;41.95;101376.91;5023816;28;20037;-28
2024/02/02 01:32:45;;;;;;;4.00;1.90;;;;;;;19.96;41.89;101387.38;5030693;28;20273;-28
2024/02/02 01:35:10;;;;;;;4.30;2.07;;;;;;;19.94;41.95;101384.00;5015211;28;20404;-28
2024/02/02 01:37:36;;;;;;;3.92;1.83;;;;;;;19.92;41.98;101386.06;5020247;28;20300;-28
2024/02/02 01:40:01;;;;;;;4.20;2.03;;;;;;;19.94;41.82;101389.41;5027036;28;20049;-29
2024/02/02 01:42:26;;;;;;;4.17;2.03;;;;;;;19.93;42.12;101380.44;5023219;28;20048;-29
2024/02/02 01:44:51;;;;;;;4.60;2.17;;;;;;;19.96;41.80;101390.09;5022485;28;20044;-27
2024/02/02 01:47:16;;;;;;;4.15;1.98;;;;;;;20.00;41.89;101399.59;5021049;28;20687;-28
2024/02/02 01:49:42;;;;;;;3.67;1.77;;;;;;;19.95;41.72;101389.25;5023969;28;20552;-28
2024/02/02 01:52:07;;;;;;;4.72;2.38;;;;;;;19.92;41.68;101394.19;5027297;28;20111;-28
2024/02/02 01:54:32;;;;;;;4.60;2.00;;;;;;;19.99;41.31;101387.03;5038554;28;20052;-28
2024/02/02 01:56:57;;;;;;;4.22;2.00;;;;;;;19.97;41.52;101375.50;5031540;28;20033;-28
2024/02/02 01:59:24;;;;;;;3.85;1.90;;;;;;;19.97;41.32;101372.81;5021525;28;20402;-27
2024/02/02 02:01:49;;;;;;;4.32;2.17;;;;;;;20.01;41.30;101362.44;5021884;28;20504;-29
2024/02/02 02:04:14;;;;;;;4.85;2.30;;;;;;;19.99;41.31;101375.31;5022343;28;20049;-28
2024/02/02 02:06:40;;;;;;;4.25;2.30;;;;;;;19.95;41.22;101380.25;5007548;28;20050;-29
2024/02/02 02:09:06;;;;;;;4.32;2.10;;;;;;;19.95;41.42;101380.25;5021151;28;20133;-30
2024/02/02 02:11:31;;;;;;;4.53;2.28;;;;;;;19.91;41.21;101371.63;5025849;28;20105;-27
2024/02/02 02:13:56;;;;;;;4.90;2.25;;;;;;;19.89;41.49;101373.66;5018118;28;20049;-29
2024/02/02 02:16:21;;;;;;;4.10;2.45;;;;;;;19.92;41.41;101377.91;5023771;28;20037;-29
2024/02/02 02:18:47;;;;;;;4.28;1.85;;;;;;;19.91;41.47;101368.91;5018736;28;20052;-28
2024/02/02 02:21:12;;;;;;;4.47;2.00;;;;;;;19.88;41.23;101373.84;5019325;28;20107;-28
2024/02/02 02:23:37;;;;;;;4.15;1.95;;;;;;;19.89;41.57;101370.94;5023208;28;20372;-29
2024/02/02 02:26:02;;;;;;;4.50;2.15;;;;;;;19.87;41.40;101362.16;5021678;28;20061;-28
2024/02/02 02:28:27;;;;;;;4.28;2.10;;;;;;;19.86;41.28;101360.47;5024358;28;20045;-27
2024/02/02 02:30:53;;;;;;;5.13;2.20;;;;;;;19.87;41.43;101345.00;5018627;28;20053;-29
2024/02/02 02:33:18;;;;;;;4.17;2.10;;;;;;;19.89;41.55;101351.94;5024829;28;20281;-28
2024/02/02 02:35:43;;;;;;;5.10;2.40;;;;;;;19.90;41.29;101350.09;5012940;28;20293;-29
2024/02/02 02:38:08;;;;;;;5.07;2.23;;;;;;;19.88;41.49;101347.56;5026767;28;20324;-29
2024/02/02 02:40:33;;;;;;;4.63;2.28;;;;;;;19.91;41.29;101349.91;5010941;28;20293;-28
2024/02/02 02:42:59;;;;;;;4.23;2.03;;;;;;;19.88;41.35;101341.28;5012034;28;20076;-28
2024/02/02 02:45:24;;;;;;;3.50;1.70;;;;;;;19.85;41.54;101339.78;5005232;28;20586;-29
2024/02/02 02:47:49;;;;;;;4.50;2.17;;;;;;;19.90;41.35;101344.69;5014197;28;20050;-28
2024/02/02 02:50:14;;;;;;;3.80;1.83;;;;;;;19.87;41.52;101350.44;5002944;28;20114;-28
2024/02/02 02:52:39;;;;;;;3.97;1.92;;;;;;;19.86;41.44;101354.19;5021388;28;20279;-28
2024/02/02 02:55:05;;;;;;;4.20;2.13;;;;;;;19.83;41.65;101349.09;5008521;28;20161;-28
2024/02/02 02:57:30;;;;;;;4.20;1.80;;;;;;;19.88;41.53;101353.00;5015948;28;20050;-28
2024/02/02 02:59:56;;;;;;;5.03;2.00;;;;;;;19.87;41.38;101343.16;5012580;28;20100;-28
2024/02/02 03:02:21;;;;;;;4.40;2.03;;;;;;;19.86;41.44;101335.19;5018441;28;20453;-29
2024/02/02 03:04:46;;;;;;;3.90;2.07;;;;;;;19.91;41.35;101338.22;5022477;28;20295;-28
2024/02/02 03:07:11;;;;;;;3.95;1.98;;;;;;;19.88;41.52;101330.44;5005098;28;20051;-28
2024/02/02 03:09:36;;;;;;;4.30;1.80;;;;;;;19.93;41.21;101325.34;5017972;28;20448;-28
2024/02/02 03:12:02;;;;;;;4.15;1.80;;;;;;;19.87;41.53;101320.59;5015353;28;20124;-29
2024/02/02 03:14:27;;;;;;;3.57;1.63;;;;;;;19.91;41.52;101328.22;5020688;28;20689;-28
2024/02/02 03:16:52;;;;;;;3.58;1.63;;;;;;;19.87;41.32;101328.72;5017870;28;20060;-28
2024/02/02 03:19:17;;;;;;;3.70;2.03;;;;;;;19.90;41.49;101328.41;5022463;28;20044;-29
2024/02/02 03:21:43;;;;;;;4.00;1.80;;;;;;;19.83;41.35;101335.53;5006086;28;20057;-28
2024/02/02 03:24:10;;;;;;;4.43;2.10;;;;;;;19.88;41.58;101338.56;5023173;28;20284;-28
2024/02/02 03:26:35;;;;;;;4.43;1.95;;;;;;;19.86;41.35;101344.19;5014814;28;20304;-29
2024/02/02 03:29:01;;;;;;;4.38;2.08;;;;;;;19.84;41.38;101345.34;5006647;28;20050;-28
2024/02/02 03:31:26;;;;;;;3.70;1.80;;;;;;;19.86;41.48;101354.19;5004886;28;20049;-28
2024/02/02 03:33:51;;;;;;;4.95;2.05;;;;;;;19.87;41.24;101350.44;5016296;28;20046;-28
2024/02/02 03:36:16;;;;;;;4.57;2.25;;;;;;;19.86;41.45;101336.03;5015794;28;20053;-29
2024/02/02 03:38:41;;;;;;;3.60;1.80;;;;;;;19.85;41.38;101325.31;5027614;28;20049;-29
2024/02/02 03:41:07;;;;;;;4.47;2.17;;;;;;;19.85;41.23;101326.22;5033385;28;20031;-28
2024/02/02 03:43:32;;;;;;;4.03;1.90;;;;;;;19.84;41.47;101323.66;5017203;28;20049;-27
2024/02/02 03:45:57;;;;;;;4.10;1.63;;;;;;;19.86;41.40;101324.31;5027160;28;20129;-28
2024/02/02 03:48:22;;;;;;;4.32;1.90;;;;;;;19.87;41.25;101337.75;5027906;28;20046;-28
2024/02/02 03:50:47;;;;;;;5.13;2.45;;;;;;;19.89;41.12;101335.69;5025734;28;20664;-29
2024/02/02 03:53:12;;;;;;;4.27;2.13;;;;;;;19.87;41.31;101331.44;5022524;28;20055;-29
2024/02/02 03:55:38;;;;;;;4.63;2.17;;;;;;;19.84;41.26;101335.34;5029234;28;20517;-29
2024/02/02 03:58:03;;;;;;;4.60;2.20;;;;;;;19.85;41.17;101341.59;5018494;28;20053;-28
2024/02/02 04:00:28;;;;;;;8.18;1.95;;;;;;;19.84;41.22;101351.63;5023625;28;20055;-28
2024/02/02 04:02:53;;;;;;;5.70;2.00;;;;;;;19.84;41.15;101348.06;5032270;28;20066;-29
2024/02/02 04:05:19;;;;;;;4.63;1.80;;;;;;;19.85;41.23;101357.88;5021246;28;20049;-27
2024/02/02 04:07:44;;;;;;;4.70;1.90;;;;;;;19.83;41.15;101349.09;5018983;28;20935;-31
2024/02/02 04:10:09;;;;;;;5.47;1.90;;;;;;;19.83;41.24;101338.22;5026609;28;20038;-28
2024/02/02 04:12:35;;;;;;;4.55;1.80;;;;;;;19.83;41.08;101344.50;5018317;28;20096;-28
2024/02/02 04:15:00;;;;;;;6.15;2.00;;;;;;;19.86;41.14;101346.03;5009451;28;20066;-29
2024/02/02 04:17:25;;;;;;;5.63;2.05;;;;;;;19.80;41.25;101350.25;5022080;28;20076;-28
2024/02/02 04:19:50;;;;;;;3.55;1.70;;;;;;;19.83;41.24;101349.09;5026727;28;20041;-28
2024/02/02 04:22:16;;;;;;;4.13;2.10;;;;;;;19.86;41.08;101348.75;5010682;28;20764;-29
2024/02/02 04:24:42;;;;;;;5.32;2.20;;;;;;;19.92;41.18;101350.78;5002151;28;20042;-30
2024/02/02 04:27:07;;;;;;;7.23;2.00;;;;;;;19.93;41.13;101350.59;5001156;28;20035;-33
2024/02/02 04:29:32;;;;;;;8.43;2.03;;;;;;;20.00;41.21;101339.91;5015348;28;20288;-31
2024/02/02 04:37:18;;;;;;;5.00;1.75;;;;;;;19.94;41.42;101349.56;5046560;27;1320466;-31
2024/02/02 04:39:43;;;;;;;5.17;1.97;;;;;;;20.01;42.01;101354.28;5069107;28;20491;-31
2024/02/02 04:42:17;;;;;;;6.77;2.40;;;;;;;20.01;40.89;101346.16;5025966;28;20797;-30
2024/02/02 04:44:43;;;;;;;6.97;2.17;;;;;;;20.05;41.03;101352.94;5007394;28;20105;-29
2024/02/02 04:47:08;;;;;;;3.88;1.60;;;;;;;20.06;41.36;101351.91;5007051;28;20557;-30
2024/02/02 04:49:33;;;;;;;8.55;2.25;;;;;;;20.15;42.47;101350.00;5007378;28;20033;-29
2024/02/02 04:51:58;;;;;;;6.43;1.80;;;;;;;20.09;41.80;101346.97;4999248;28;20528;-29
2024/02/02 04:54:23;;;;;;;7.28;2.03;;;;;;;20.15;41.39;101352.72;5003997;28;20389;-29
2024/02/02 04:56:49;;;;;;;4.50;1.80;;;;;;;20.19;41.42;101354.91;5003765;28;20045;-29
2024/02/02 04:59:14;;;;;;;6.00;2.00;;;;;;;20.18;41.09;101361.34;5002361;28;20042;-29
2024/02/02 05:01:39;;;;;;;4.72;2.20;;;;;;;20.30;45.24;101361.81;4996195;28;20106;-29
2024/02/02 05:04:05;;;;;;;9.38;2.15;;;;;;;20.41;41.10;101363.28;5004721;28;20034;-28
2024/02/02 05:06:30;;;;;;;8.25;1.98;;;;;;;20.41;40.70;101364.13;5008645;28;20030;-29
2024/02/02 05:08:55;;;;;;;7.40;2.17;;;;;;;20.40;40.59;101372.44;5009557;28;20563;-29
2024/02/02 05:11:21;;;;;;;5.55;2.20;;;;;;;20.38;40.69;101378.06;5009693;28;20508;-29
2024/02/02 05:13:46;;;;;;;4.35;1.80;;;;;;;20.36;40.62;101374.69;5009788;28;20030;-28
2024/02/02 05:16:11;;;;;;;5.25;1.70;;;;;;;20.35;40.73;101381.13;5007758;28;20065;-29
2024/02/02 05:18:36;;;;;;;3.97;1.70;;;;;;;20.38;40.71;101386.22;5007007;28;20037;-27
2024/02/02 05:21:02;;;;;;;6.40;1.92;;;;;;;20.36;40.82;101395.53;5009049;28;20018;-29
2024/02/02 05:23:27;;;;;;;4.70;2.10;;;;;;;20.29;41.01;101398.13;5003955;28;20030;-28
2024/02/02 05:25:53;;;;;;;4.78;1.63;;;;;;;20.31;41.10;101404.22;5007997;28;20030;-29
2024/02/02 05:28:18;;;;;;;10.73;2.03;;;;;;;20.24;40.83;101411.38;5000840;28;20049;-29
2024/02/02 05:30:43;;;;;;;5.00;2.17;;;;;;;20.23;41.08;101404.25;5007405;28;20057;-29
2024/02/02 05:33:08;;;;;;;4.00;2.00;;;;;;;20.20;41.24;101410.88;5006971;28;20113;-27
2024/02/02 05:35:33;;;;;;;4.50;1.77;;;;;;;20.26;41.13;101409.34;5006880;28;20379;-29
2024/02/02 05:37:58;;;;;;;4.18;2.00;;;;;;;20.20;41.09;101416.31;5019243;28;20327;-29
2024/02/02 05:40:24;;;;;;;3.43;1.60;;;;;;;20.20;41.23;101410.88;5027199;28;20049;-30
2024/02/02 05:42:49;;;;;;;6.33;2.10;;;;;;;20.13;41.36;101414.47;5025885;28;20033;-28
2024/02/02 05:45:14;;;;;;;4.63;1.77;;;;;;;20.18;41.05;101412.09;5025841;28;20268;-28
2024/02/02 05:47:39;;;;;;;6.15;1.95;;;;;;;20.15;41.13;101404.28;5018085;28;20273;-29
2024/02/02 05:50:05;;;;;;;5.25;2.00;;;;;;;20.09;41.26;101412.13;5012533;28;20570;-28
2024/02/02 05:52:30;;;;;;;5.10;2.17;;;;;;;20.09;41.22;101403.97;5012709;28;20026;-30
2024/02/02 05:54:55;;;;;;;15.67;3.60;;;;;;;20.05;41.50;101391.75;5012073;28;20054;-29
2024/02/02 05:57:21;;;;;;;4.15;1.90;;;;;;;20.08;41.33;101398.72;5012759;28;20029;-29
2024/02/02 05:59:46;;;;;;;4.55;2.00;;;;;;;20.08;41.10;101398.72;5004182;28;20026;-29
2024/02/02 06:02:11;;;;;;;4.68;2.00;;;;;;;20.08;41.34;101402.28;5005480;28;20394;-29
2024/02/02 06:04:36;;;;;;;4.65;2.00;;;;;;;20.04;41.14;101390.06;5007939;28;20044;-28
2024/02/02 06:07:01;;;;;;;4.38;2.10;;;;;;;20.02;41.49;101388.56;5003482;28;20406;-29
2024/02/02 06:09:27;;;;;;;4.00;1.90;;;;;;;20.02;41.29;101381.28;5012306;28;20057;-28
2024/02/02 06:11:52;;;;;;;4.82;1.70;;;;;;;20.04;41.31;101387.34;5012310;28;20116;-29
2024/02/02 06:14:17;;;;;;;4.65;1.88;;;;;;;20.02;41.22;101380.41;5012042;28;20029;-28
2024/02/02 06:16:42;;;;;;;8.90;2.10;;;;;;;20.01;41.30;101393.16;5011912;28;20038;-28
2024/02/02 06:19:08;;;;;;;3.70;1.73;;;;;;;20.06;41.31;101396.19;5011967;28;20044;-29
2024/02/02 06:21:33;;;;;;;6.23;2.00;;;;;;;20.02;41.18;101397.56;5012206;28;20096;-29
2024/02/02 06:23:58;;;;;;;4.28;1.90;;;;;;;20.02;41.36;101416.56;5012016;28;20276;-27
2024/02/02 06:26:23;;;;;;;3.97;1.77;;;;;;;20.02;41.09;101416.56;5011567;28;20036;-30
2024/02/02 06:28:49;;;;;;;4.33;2.07;;;;;;;19.99;41.08;101416.91;5003773;28;20268;-29
2024/02/02 06:31:14;;;;;;;3.80;1.95;;;;;;;19.97;41.39;101415.38;5006027;28;20304;-29
2024/02/02 06:33:39;;;;;;;4.38;2.05;;;;;;;19.99;41.24;101425.03;5007495;28;20061;-29
2024/02/02 06:36:04;;;;;;;4.07;1.63;;;;;;;20.02;41.14;101421.13;5011418;28;20034;-29
2024/02/02 06:38:29;;;;;;;3.38;1.65;;;;;;;20.00;41.14;101421.31;5011150;28;20285;-28
2024/02/02 06:40:54;;;;;;;6.53;2.07;;;;;;;19.99;41.35;101424.19;5011813;28;20038;-30
2024/02/02 06:43:20;;;;;;;3.60;1.80;;;;;;;19.98;41.10;101422.50;5011832;28;20033;-29
2024/02/02 06:45:45;;;;;;;3.73;1.93;;;;;;;19.95;41.06;101420.97;5011486;28;20038;-29
2024/02/02 06:48:13;;;;;;;7.68;2.17;;;;;;;19.99;41.40;101422.31;5011217;28;20407;-28
2024/02/02 06:50:38;;;;;;;4.43;2.15;;;;;;;19.98;41.40;101422.50;5003077;28;20430;-28
2024/02/02 06:53:04;;;;;;;3.67;1.80;;;;;;;19.98;41.06;101425.22;5002751;28;20045;-28
2024/02/02 06:55:29;;;;;;;4.65;2.10;;;;;;;19.99;41.15;101426.88;5003178;28;20437;-28
2024/02/02 06:57:55;;;;;;;4.85;2.20;;;;;;;19.97;41.29;101432.50;5011077;28;20032;-29
2024/02/02 07:00:20;;;;;;;3.50;1.63;;;;;;;19.96;41.41;101436.22;5010554;28;20038;-28
2024/02/02 07:02:45;;;;;;;4.10;1.70;;;;;;;19.99;41.31;101430.47;5000363;28;20061;-28
2024/02/02 07:05:10;;;;;;;4.13;1.77;;;;;;;19.95;41.26;101437.25;5010925;28;20079;-29
2024/02/02 07:07:36;;;;;;;4.40;2.10;;;;;;;19.99;41.46;101438.59;5010935;28;20029;-29
2024/02/02 07:10:01;;;;;;;6.07;2.35;;;;;;;19.96;41.54;101436.22;5005683;28;20026;-29
2024/02/02 07:12:26;;;;;;;14.17;2.37;;;;;;;19.60;43.78;101436.59;5005053;28;20032;-29
2024/02/02 07:14:51;;;;;;;11.70;2.77;;;;;;;19.36;43.13;101438.31;5010804;28;20265;-29
2024/02/02 07:17:17;;;;;;;4.75;2.00;;;;;;;19.30;43.80;101449.81;5010821;28;20689;-30
2024/02/02 07:19:42;;;;;;;3.92;2.08;;;;;;;19.66;43.18;101435.91;5011181;28;20093;-29
2024/02/02 07:22:07;;;;;;;11.47;2.03;;;;;;;19.91;43.39;101438.63;5004985;28;20043;-27
2024/02/02 07:24:32;;;;;;;7.17;2.10;;;;;;;20.00;43.41;101437.59;5002475;28;20272;-28
2024/02/02 07:26:58;;;;;;;10.17;1.87;;;;;;;20.03;43.17;101430.97;5003170;28;20261;-29
2024/02/02 07:29:23;;;;;;;5.47;2.20;;;;;;;20.03;41.92;101431.78;5010760;28;20348;-29
2024/02/02 07:31:48;;;;;;;7.45;1.98;;;;;;;20.23;41.48;101432.25;4994846;28;20026;-28
2024/02/02 07:34:13;;;;;;;8.35;2.00;;;;;;;20.25;41.54;101418.50;4990965;28;20041;-27
2024/02/02 07:36:39;;;;;;;6.77;2.00;;;;;;;20.34;41.31;101406.59;5000329;28;20041;-28
2024/02/02 07:39:04;;;;;;;4.35;1.85;;;;;;;20.45;40.50;101401.78;5000404;28;20037;-28
2024/02/02 07:41:29;;;;;;;5.38;2.20;;;;;;;20.29;40.59;101394.56;5001386;28;20026;-26
2024/02/02 07:43:54;;;;;;;5.80;1.97;;;;;;;20.30;41.15;101407.97;5006779;28;20022;-28
2024/02/02 07:46:19;;;;;;;5.28;1.90;;;;;;;20.27;40.58;101405.59;5004575;28;20261;-28
2024/02/02 07:48:46;;;;;;;4.22;2.03;;;;;;;20.32;40.64;101402.38;5010287;28;20121;-29
2024/02/02 07:51:11;;;;;;;3.90;1.90;;;;;;;20.27;41.09;101400.19;4999411;28;20038;-29
2024/02/02 07:53:38;;;;;;;4.45;1.92;;;;;;;20.35;40.45;101408.28;4999761;28;20037;-28
2024/02/02 07:56:03;;;;;;;4.53;1.80;;;;;;;20.42;40.51;101419.28;5004890;28;20038;-28
2024/02/02 07:58:28;;;;;;;4.37;1.80;;;;;;;20.41;40.95;101418.44;4999022;28;20033;-28
2024/02/02 08:00:53;;;;;;;4.27;1.83;;;;;;;20.48;40.39;101418.56;4990456;28;20040;-28
2024/02/02 08:03:18;;;;;;;4.65;2.05;;;;;;;20.51;40.52;101411.94;4990482;28;20030;-28
2024/02/02 08:05:43;;;;;;;10.47;2.20;;;;;;;20.61;40.03;101400.88;5002371;28;20034;-30
2024/02/02 08:08:09;;;;;;;5.57;2.08;;;;;;;20.54;40.28;101396.16;4998815;28;20045;-29
2024/02/02 08:10:34;;;;;;;6.15;2.00;;;;;;;20.55;40.03;101388.84;4995650;28;20045;-30
2024/02/02 08:12:59;;;;;;;4.20;1.55;;;;;;;20.57;39.79;101393.06;5003558;28;20543;-30
2024/02/02 08:15:24;;;;;;;6.00;2.20;;;;;;;20.64;39.92;101401.34;5003177;28;20094;-30
2024/02/02 08:17:49;;;;;;;4.88;2.03;;;;;;;20.64;40.06;101404.06;5003963;28;20369;-29
2024/02/02 08:20:14;;;;;;;6.85;1.80;;;;;;;20.62;40.06;101400.69;5001748;28;20441;-29
2024/02/02 08:22:43;;;;;;;4.53;2.20;;;;;;;20.60;40.00;101408.16;5004376;28;20037;-31
2024/02/02 08:25:08;;;;;;;5.10;1.70;;;;;;;20.62;40.08;101419.69;5007893;28;20125;-30
2024/02/02 08:27:33;;;;;;;4.33;2.07;;;;;;;20.58;39.75;101421.09;5007975;28;20447;-30
2024/02/02 08:29:58;;;;;;;4.88;1.98;;;;;;;20.67;40.04;101411.88;5009517;28;20033;-30
2024/02/02 08:32:24;;;;;;;4.27;2.20;;;;;;;20.65;39.81;101397.63;5005550;28;20026;-29
2024/02/02 08:34:49;;;;;;;4.37;2.20;;;;;;;20.69;39.94;101392.66;4991471;28;20585;-29
2024/02/02 08:37:14;;;;;;;6.83;1.73;;;;;;;20.83;39.76;101393.81;5007052;28;20049;-29
2024/02/02 08:39:39;;;;;;;5.70;1.85;;;;;;;20.91;39.73;101401.88;5007696;28;20030;-29
2024/02/02 08:42:04;;;;;;;6.57;2.00;;;;;;;20.92;39.51;101409.03;5008753;28;20389;-30
2024/02/02 08:44:32;;;;;;;7.80;2.22;;;;;;;20.80;39.50;101381.44;5000151;28;20280;-29
2024/02/02 08:46:57;;;;;;;8.55;2.10;;;;;;;20.72;39.84;101371.41;5008961;28;20088;-34
2024/02/02 08:49:23;;;;;;;7.68;1.95;;;;;;;20.89;39.31;101371.31;4993254;28;20030;-35
2024/02/02 08:51:49;;;;;;;6.78;1.95;;;;;;;20.76;39.63;101385.50;5001390;28;20026;-33
2024/02/02 08:54:14;;;;;;;7.95;2.10;;;;;;;20.67;39.85;101401.00;5002369;28;20053;-31
2024/02/02 08:56:39;;;;;;;10.55;2.00;;;;;;;20.61;39.74;101390.00;5006567;28;20026;-30
2024/02/02 08:59:05;;;;;;;4.57;2.03;;;;;;;20.64;39.79;101401.34;5009659;28;20037;-30
2024/02/02 09:01:30;;;;;;;7.20;1.60;;;;;;;20.78;39.52;101393.50;5009529;28;20083;-31
2024/02/02 09:03:55;;;;;;;4.90;1.93;;;;;;;20.64;39.57;101390.50;5009167;28;20273;-31
2024/02/02 09:06:20;;;;;;;6.53;1.95;;;;;;;20.49;39.82;101389.56;5008736;28;20257;-31
2024/02/02 09:08:45;;;;;;;4.90;2.33;;;;;;;20.40;40.33;101391.47;5006011;28;20034;-31
2024/02/02 09:11:11;;;;;;;5.85;1.80;;;;;;;20.49;40.20;101381.41;5007037;28;20377;-30
2024/02/02 09:13:36;;;;;;;6.43;1.95;;;;;;;20.57;39.95;101373.22;5003182;28;20034;-31
2024/02/02 09:16:01;;;;;;;6.10;2.00;;;;;;;20.60;40.09;101372.84;5008134;28;20409;-31
2024/02/02 09:18:26;;;;;;;15.48;2.75;;;;;;;20.59;40.01;101384.75;5001619;28;20398;-32
2024/02/02 09:20:52;;;;;;;5.30;2.00;;;;;;;20.55;40.16;101386.97;5008925;28;20034;-30
2024/02/02 09:23:17;;;;;;;5.40;2.20;;;;;;;20.56;40.33;101401.41;5011261;28;20762;-30
2024/02/02 09:25:42;;;;;;;6.60;1.77;;;;;;;20.49;40.12;101405.84;5012516;28;20033;-31
2024/02/02 09:28:07;;;;;;;4.95;2.00;;;;;;;20.50;40.29;101411.09;5011613;28;20029;-31
2024/02/02 09:30:32;;;;;;;6.57;1.75;;;;;;;20.54;40.50;101398.00;5008545;28;20022;-34
2024/02/02 09:32:59;;;;;;;5.22;1.80;;;;;;;20.38;40.48;101402.50;5012503;28;20061;-33
2024/02/02 09:35:25;;;;;;;7.90;1.90;;;;;;;20.24;40.79;101389.66;5004686;28;20037;-33
2024/02/02 09:37:50;;;;;;;4.13;2.00;;;;;;;20.38;40.73;101390.78;5011211;28;20061;-32
2024/02/02 09:40:15;;;;;;;4.35;1.60;;;;;;;20.42;40.65;101398.41;5007076;28;20069;-32
2024/02/02 09:42:40;;;;;;;4.28;2.03;;;;;;;20.42;40.58;101409.25;5002279;28;20026;-33
2024/02/02 09:45:06;;;;;;;5.53;2.07;;;;;;;20.50;40.27;101410.28;5011772;28;20386;-32
2024/02/02 09:47:31;;;;;;;3.92;1.75;;;;;;;20.61;40.18;101407.13;5007737;28;20778;-33
2024/02/02 09:49:56;;;;;;;4.55;1.88;;;;;;;20.72;39.90;101411.34;5011689;28;20076;-33
2024/02/02 09:52:23;;;;;;;4.28;1.73;;;;;;;20.73;39.77;101413.03;5012039;28;20022;-31
2024/02/02 09:54:48;;;;;;;3.83;1.70;;;;;;;20.73;39.87;101416.63;5007127;28;20046;-32
2024/02/02 09:57:14;;;;;;;3.65;1.80;;;;;;;20.78;39.85;101397.06;5006504;28;20583;-32
2024/02/02 09:59:40;;;;;;;4.25;1.83;;;;;;;20.74;39.88;101412.00;5009934;28;20026;-32
2024/02/02 10:02:05;;;;;;;4.00;1.95;;;;;;;20.73;39.78;101421.19;5012286;28;20038;-33
2024/02/02 10:04:30;;;;;;;4.70;2.03;;;;;;;20.69;40.06;101423.38;5012971;28;20092;-32
2024/02/02 10:06:55;;;;;;;6.35;1.88;;;;;;;20.73;39.77;101411.19;5010750;28;20025;-33
2024/02/02 10:09:21;;;;;;;3.33;1.50;;;;;;;20.87;39.54;101409.56;5012365;28;20041;-34
2024/02/02 10:11:46;;;;;;;5.43;1.70;;;;;;;20.84;39.84;101398.22;5004365;28;20033;-32
2024/02/02 10:14:11;;;;;;;3.78;1.60;;;;;;;20.77;39.88;101397.25;5011707;28;20056;-34
2024/02/02 10:16:36;;;;;;;4.70;1.88;;;;;;;20.83;39.68;101396.53;5004794;28;20053;-32
2024/02/02 10:19:02;;;;;;;4.30;1.73;;;;;;;20.82;39.80;101402.97;5019192;22;20417;-35
2024/02/02 10:21:27;;;;;;;3.53;1.50;;;;;;;20.83;39.71;101394.63;4993313;28;20085;-33
2024/02/02 10:23:52;;;;;;;4.07;1.60;;;;;;;20.83;39.75;101394.63;5001604;28;20042;-34
2024/02/02 10:26:17;;;;;;;3.77;1.80;;;;;;;20.82;39.79;101392.09;4996971;28;20042;-33
2024/02/02 10:28:42;;;;;;;5.73;1.60;;;;;;;20.89;39.64;101403.94;4996837;28;20490;-32
2024/02/02 10:31:07;;;;;;;5.05;1.70;;;;;;;20.82;39.82;101398.41;4999991;28;20042;-34
2024/02/02 10:33:33;;;;;;;6.40;1.88;;;;;;;20.98;39.46;101380.28;4993660;28;20521;-31
2024/02/02 10:35:58;;;;;;;5.70;1.87;;;;;;;20.97;39.59;101373.97;4993398;28;20022;-32
2024/02/02 10:38:23;;;;;;;10.43;1.87;;;;;;;20.97;39.54;101357.66;4992214;28;20886;-33
2024/02/02 10:40:48;;;;;;;4.00;1.80;;;;;;;21.01;39.33;101350.84;4993078;28;20300;-33
2024/02/02 10:43:13;;;;;;;3.90;1.70;;;;;;;20.97;39.52;101345.97;4993547;28;20113;-34
2024/02/02 10:45:41;;;;;;;4.03;1.63;;;;;;;20.97;39.59;101351.41;4994804;28;20037;-33
2024/02/02 10:48:06;;;;;;;3.08;1.50;;;;;;;20.99;39.25;101339.31;4995703;28;20023;-33
2024/02/02 10:50:31;;;;;;;5.00;1.50;;;;;;;21.02;39.33;101336.25;4992550;28;20032;-34
2024/02/02 10:52:56;;;;;;;4.80;1.53;;;;;;;20.95;39.38;101327.13;4975684;28;20061;-33
2024/02/02 10:55:21;;;;;;;5.60;2.05;;;;;;;20.97;39.25;101329.66;4991755;28;20034;-35
2024/02/02 10:57:46;;;;;;;4.53;1.70;;;;;;;20.96;39.28;101336.97;4992869;28;20137;-33
2024/02/02 11:00:13;;;;;;;8.32;2.17;;;;;;;20.98;39.89;101331.34;4991631;28;20033;-33
2024/02/02 11:02:38;;;;;;;4.70;1.60;;;;;;;20.80;39.68;101324.38;4992331;28;20033;-30
2024/02/02 11:05:05;;;;;;;5.93;2.10;;;;;;;20.83;39.94;101323.16;4992220;28;20023;-30
2024/02/02 11:07:30;;;;;;;3.78;1.60;;;;;;;20.75;39.96;101343.06;4991586;28;20034;-31
2024/02/02 11:09:55;;;;;;;5.15;1.88;;;;;;;20.73;39.89;101337.81;4991969;28;20113;-31
2024/02/02 11:12:20;;;;;;;4.30;1.80;;;;;;;20.88;39.90;101351.47;4991826;28;20033;-31
2024/02/02 11:14:45;;;;;;;6.17;1.70;;;;;;;20.87;39.99;101340.78;4991578;28;20033;-31
2024/02/02 11:17:11;;;;;;;3.83;1.70;;;;;;;20.82;39.91;101327.75;4991412;28;20381;-31
2024/02/02 11:19:36;;;;;;;3.08;1.38;;;;;;;20.87;40.00;101327.22;4991991;28;20267;-32